createdAt,value
2022-10-04T00:00:10.026Z,56.44
2022-10-04T00:02:38.152Z,56.74
2022-10-04T00:05:08.292Z,57.35
2022-10-04T00:07:44.552Z,57.77
2022-10-04T00:10:32.888Z,57.66
2022-10-04T00:13:06.084Z,58.34
2022-10-04T00:15:39.023Z,58.41
2022-10-04T00:18:12.372Z,58.15
2022-10-04T00:20:53.183Z,58.35
2022-10-04T00:23:23.154Z,58.88
2022-10-04T00:26:04.352Z,58.73
2022-10-04T00:28:37.399Z,59.28
2022-10-04T00:31:25.916Z,59.61
2022-10-04T00:34:00.486Z,59.64
2022-10-04T00:36:35.706Z,58.93
2022-10-04T00:39:08.682Z,59.15
2022-10-04T00:41:48.364Z,58.57
2022-10-04T00:44:31.113Z,58.38
2022-10-04T00:47:00.677Z,58.46
2022-10-04T00:49:40.360Z,59.25
2022-10-04T00:52:13.332Z,58.75
2022-10-04T00:54:44.458Z,58.77
2022-10-04T00:57:17.608Z,58.78
2022-10-04T00:59:50.688Z,58.60
2022-10-04T01:02:51.154Z,58.71
2022-10-04T01:05:23.329Z,58.72
2022-10-04T01:07:54.255Z,58.62
2022-10-04T01:10:24.927Z,58.75
2022-10-04T01:12:56.351Z,58.90
2022-10-04T01:15:53.008Z,58.57
2022-10-04T01:18:20.568Z,58.94
2022-10-04T01:20:57.600Z,58.98
2022-10-04T01:23:34.079Z,59.46
2022-10-04T01:26:06.524Z,59.50
2022-10-04T01:28:34.835Z,60.18
2022-10-04T01:31:02.358Z,59.88
2022-10-04T01:33:31.004Z,59.46
2022-10-04T01:35:58.651Z,60.29
2022-10-04T01:38:26.213Z,60.40
2022-10-04T01:41:00.491Z,60.25
2022-10-04T01:43:33.271Z,60.66
2022-10-04T01:46:05.298Z,61.67
2022-10-04T01:48:37.082Z,61.78
2022-10-04T01:51:18.835Z,61.41
2022-10-04T01:53:51.473Z,61.90
2022-10-04T01:56:19.721Z,61.13
2022-10-04T01:58:49.946Z,60.48
2022-10-04T02:01:31.230Z,60.58
2022-10-04T02:04:10.326Z,61.22
2022-10-04T02:06:39.490Z,60.72
2022-10-04T02:09:10.787Z,60.96
2022-10-04T02:11:41.347Z,60.64
2022-10-04T02:14:17.674Z,60.36
2022-10-04T02:16:46.536Z,60.35
2022-10-04T02:19:15.316Z,60.33
2022-10-04T02:21:43.560Z,60.16
2022-10-04T02:24:12.121Z,60.19
2022-10-04T02:26:39.696Z,59.83
2022-10-04T02:29:09.481Z,60.31
2022-10-04T02:31:57.116Z,60.08
2022-10-04T02:34:24.820Z,60.10
2022-10-04T02:36:52.550Z,60.39
2022-10-04T02:39:25.982Z,60.11
2022-10-04T02:42:03.879Z,60.30
2022-10-04T02:44:41.752Z,60.33
2022-10-04T02:47:23.176Z,60.66
2022-10-04T02:50:20.000Z,60.21
2022-10-04T02:52:51.098Z,60.48
2022-10-04T02:55:22.608Z,60.95
2022-10-04T02:57:52.327Z,61.70
2022-10-04T03:00:26.915Z,61.26
2022-10-04T03:03:20.080Z,60.97
2022-10-04T03:06:01.200Z,61.33
2022-10-04T03:08:31.770Z,61.16
2022-10-04T03:10:59.704Z,61.36
2022-10-04T03:13:27.660Z,61.27
2022-10-04T03:15:55.525Z,61.19
2022-10-04T03:18:23.372Z,61.25
2022-10-04T03:20:50.737Z,61.32
2022-10-04T03:23:18.990Z,61.43
2022-10-04T03:26:03.809Z,61.27
2022-10-04T03:28:31.441Z,61.56
2022-10-04T03:30:58.921Z,61.27
2022-10-04T03:33:29.267Z,61.45
2022-10-04T03:35:59.023Z,62.18
2022-10-04T03:38:27.343Z,61.76
2022-10-04T03:40:59.376Z,61.49
2022-10-04T03:43:27.762Z,62.02
2022-10-04T03:45:55.709Z,61.86
2022-10-04T03:48:29.336Z,62.10
2022-10-04T03:50:57.683Z,62.04
2022-10-04T03:53:29.972Z,62.20
2022-10-04T03:56:03.423Z,62.47
2022-10-04T03:58:32.032Z,61.64
2022-10-04T04:01:17.544Z,61.56
2022-10-04T04:03:54.119Z,61.79
2022-10-04T04:06:22.579Z,61.63
2022-10-04T04:08:53.243Z,62.30
2022-10-04T04:11:24.753Z,61.74
2022-10-04T04:14:10.091Z,61.75
2022-10-04T04:16:37.972Z,61.42
2022-10-04T04:19:12.097Z,62.40
2022-10-04T04:21:40.143Z,62.23
2022-10-04T04:24:17.007Z,62.91
2022-10-04T04:26:48.227Z,61.92
2022-10-04T04:29:48.232Z,62.03
2022-10-04T04:32:18.944Z,62.32
2022-10-04T04:35:07.147Z,63.22
2022-10-04T04:37:35.853Z,62.65
2022-10-04T04:40:21.135Z,62.24
2022-10-04T04:42:49.610Z,62.73
2022-10-04T04:45:20.221Z,62.71
2022-10-04T04:47:52.348Z,62.68
2022-10-04T04:50:19.883Z,62.62
2022-10-04T04:52:50.266Z,62.42
2022-10-04T04:55:23.339Z,62.10
2022-10-04T04:57:52.391Z,62.15
2022-10-04T05:00:26.164Z,62.67
2022-10-04T05:02:58.523Z,62.55
2022-10-04T05:05:28.628Z,62.49
2022-10-04T05:08:22.469Z,62.24
2022-10-04T05:11:09.504Z,63.11
2022-10-04T05:13:53.124Z,62.51
2022-10-04T05:16:26.771Z,62.65
2022-10-04T05:18:57.543Z,62.67
2022-10-04T05:21:30.351Z,62.73
2022-10-04T05:24:05.953Z,62.29
2022-10-04T05:26:33.274Z,62.58
2022-10-04T05:29:07.428Z,62.79
2022-10-04T05:31:34.645Z,62.58
2022-10-04T05:34:14.092Z,62.32
2022-10-04T05:36:58.633Z,63.24
2022-10-04T05:39:41.001Z,63.19
2022-10-04T05:42:23.582Z,63.12
2022-10-04T05:44:53.699Z,62.91
2022-10-04T05:47:24.062Z,63.03
2022-10-04T05:49:54.041Z,62.98
2022-10-04T05:52:30.326Z,62.62
2022-10-04T05:55:13.125Z,62.41
2022-10-04T05:57:42.664Z,62.41
2022-10-04T06:00:15.894Z,63.04
2022-10-04T06:02:51.203Z,63.53
2022-10-04T06:05:37.061Z,63.83
2022-10-04T06:08:17.225Z,63.45
2022-10-04T06:10:47.380Z,63.56
2022-10-04T06:14:01.116Z,63.16
2022-10-04T06:16:57.529Z,62.36
2022-10-04T06:19:46.746Z,61.32
2022-10-04T06:22:18.381Z,60.90
2022-10-04T06:25:02.996Z,60.10
2022-10-04T06:27:36.787Z,60.20
2022-10-04T06:30:06.458Z,60.58
2022-10-04T06:33:14.027Z,60.81
2022-10-04T06:35:59.918Z,60.65
2022-10-04T06:38:47.088Z,61.21
2022-10-04T06:41:25.713Z,61.14
2022-10-04T06:44:24.501Z,60.43
2022-10-04T06:47:05.546Z,62.35
2022-10-04T06:49:50.295Z,60.15
2022-10-04T06:52:28.405Z,59.72
2022-10-04T06:54:55.570Z,59.88
2022-10-04T06:57:38.105Z,59.86
2022-10-04T07:00:13.171Z,60.06
2022-10-04T07:02:43.905Z,59.25
2022-10-04T07:05:30.127Z,59.50
2022-10-04T07:08:11.483Z,59.18
2022-10-04T07:10:49.610Z,59.66
2022-10-04T07:13:28.360Z,59.72
2022-10-04T07:16:02.218Z,60.13
2022-10-04T07:18:37.069Z,60.13
2022-10-04T07:21:13.939Z,60.05
2022-10-04T07:24:03.693Z,59.83
2022-10-04T07:26:42.050Z,59.94
2022-10-04T07:29:22.175Z,60.47
2022-10-04T07:31:53.887Z,59.45
2022-10-04T07:34:26.090Z,59.48
2022-10-04T07:36:55.380Z,59.06
2022-10-04T07:39:42.594Z,58.35
2022-10-04T07:42:19.643Z,58.62
2022-10-04T07:44:59.380Z,58.74
2022-10-04T07:47:27.870Z,57.97
2022-10-04T07:49:55.852Z,57.27
2022-10-04T07:53:03.873Z,57.37
2022-10-04T07:55:42.844Z,56.77
2022-10-04T07:58:30.968Z,56.87
2022-10-04T08:01:03.864Z,56.74
2022-10-04T08:04:02.569Z,56.01
2022-10-04T08:06:56.403Z,54.62
2022-10-04T08:09:45.629Z,55.58
2022-10-04T08:12:34.701Z,54.36
2022-10-04T08:15:14.546Z,53.19
2022-10-04T08:17:56.250Z,53.13
2022-10-04T08:20:32.576Z,52.98
2022-10-04T08:23:07.891Z,53.01
2022-10-04T08:25:54.919Z,51.91
2022-10-04T08:29:02.846Z,51.83
2022-10-04T08:32:23.367Z,54.30
2022-10-04T08:35:05.875Z,54.42
2022-10-04T08:37:53.794Z,54.05
2022-10-04T08:40:44.100Z,51.86
2022-10-04T08:43:41.628Z,50.29
2022-10-04T08:46:36.778Z,48.50
2022-10-04T08:49:49.255Z,49.44
2022-10-04T08:52:37.013Z,48.96
2022-10-04T08:55:39.176Z,48.62
2022-10-04T08:58:12.457Z,47.76
2022-10-04T09:01:00.374Z,48.99
2022-10-04T09:04:08.623Z,47.92
2022-10-04T09:06:59.405Z,47.79
2022-10-04T09:09:49.820Z,47.81
2022-10-04T09:12:29.608Z,47.69
2022-10-04T09:15:34.654Z,47.93
2022-10-04T09:18:19.439Z,48.51
2022-10-04T09:21:12.143Z,49.03
2022-10-04T09:24:07.817Z,48.25
2022-10-04T09:27:26.869Z,48.71
2022-10-04T09:30:23.068Z,50.21
2022-10-04T09:33:02.648Z,48.52
2022-10-04T09:36:01.904Z,47.18
2022-10-04T09:38:35.885Z,47.65
2022-10-04T09:41:14.629Z,48.80
2022-10-04T09:43:58.988Z,47.50
2022-10-04T09:46:45.243Z,49.13
2022-10-04T09:49:35.148Z,49.19
2022-10-04T09:52:20.831Z,49.39
2022-10-04T09:55:06.087Z,49.67
2022-10-04T09:58:04.111Z,49.32
2022-10-04T10:00:47.632Z,49.88
2022-10-04T10:03:27.159Z,50.42
2022-10-04T10:06:17.901Z,50.06
2022-10-04T10:08:54.543Z,49.54
2022-10-04T10:11:50.964Z,50.14
2022-10-04T10:14:46.810Z,49.62
2022-10-04T10:17:21.528Z,49.59
2022-10-04T10:20:03.862Z,49.76
2022-10-04T10:22:52.929Z,48.90
2022-10-04T10:25:39.168Z,49.42
2022-10-04T10:28:37.718Z,47.80
2022-10-04T10:31:22.407Z,48.13
2022-10-04T10:34:38.108Z,48.60
2022-10-04T10:37:12.555Z,48.84
2022-10-04T10:39:48.883Z,49.73
2022-10-04T10:42:54.239Z,49.16
2022-10-04T10:45:56.621Z,48.94
2022-10-04T10:48:43.887Z,48.38
2022-10-04T10:51:20.384Z,47.51
2022-10-04T10:54:19.205Z,48.38
2022-10-04T10:57:00.792Z,48.76
2022-10-04T10:59:49.910Z,47.71
2022-10-04T11:03:13.358Z,48.08
2022-10-04T11:06:06.309Z,49.21
2022-10-04T11:09:10.438Z,49.27
2022-10-04T11:12:35.167Z,49.02
2022-10-04T11:15:02.335Z,49.28
2022-10-04T11:17:40.257Z,48.83
2022-10-04T11:21:05.089Z,49.06
2022-10-04T11:24:04.636Z,48.32
2022-10-04T11:26:56.974Z,48.30
2022-10-04T11:29:27.333Z,49.82
2022-10-04T11:32:00.893Z,49.15
2022-10-04T11:34:50.793Z,49.10
2022-10-04T11:37:31.622Z,50.25
2022-10-04T11:40:21.318Z,49.92
2022-10-04T11:43:01.106Z,49.27
2022-10-04T11:45:55.874Z,47.52
2022-10-04T11:48:32.201Z,47.89
2022-10-04T11:51:12.376Z,47.31
2022-10-04T11:54:17.058Z,46.63
2022-10-04T11:57:04.154Z,47.01
2022-10-04T11:59:50.052Z,47.31
2022-10-04T12:02:53.350Z,47.74
2022-10-04T12:05:23.727Z,48.18
2022-10-04T12:08:10.234Z,47.55
2022-10-04T12:10:40.542Z,48.41
2022-10-04T12:13:39.067Z,47.70
2022-10-04T12:16:25.602Z,45.51
2022-10-04T12:19:17.808Z,47.51
2022-10-04T12:21:54.993Z,48.47
2022-10-04T12:24:33.076Z,48.59
2022-10-04T12:27:25.280Z,47.70
2022-10-04T12:30:21.679Z,48.62
2022-10-04T12:33:06.869Z,49.61
2022-10-04T12:35:34.024Z,49.82
2022-10-04T12:38:16.900Z,50.20
2022-10-04T12:40:58.328Z,50.39
2022-10-04T12:43:35.754Z,50.56
2022-10-04T12:46:25.352Z,50.63
2022-10-04T12:49:16.833Z,51.79
2022-10-04T12:52:02.665Z,51.87
2022-10-04T12:54:37.178Z,52.58
2022-10-04T12:57:23.320Z,52.77
2022-10-04T13:00:00.436Z,52.17
2022-10-04T13:02:47.748Z,52.31
2022-10-04T13:05:41.430Z,51.39
2022-10-04T13:08:43.904Z,51.77
2022-10-04T13:11:24.803Z,51.84
2022-10-04T13:14:29.399Z,50.93
2022-10-04T13:17:34.800Z,51.07
2022-10-04T13:20:31.540Z,50.28
2022-10-04T13:23:03.871Z,50.16
2022-10-04T13:26:04.016Z,51.34
2022-10-04T13:28:46.919Z,48.25
2022-10-04T13:31:24.897Z,49.04
2022-10-04T13:34:05.882Z,49.36
2022-10-04T13:36:58.842Z,49.68
2022-10-04T13:39:53.784Z,49.46
2022-10-04T13:42:33.079Z,49.57
2022-10-04T13:45:18.343Z,49.57
2022-10-04T13:47:54.542Z,49.98
2022-10-04T13:50:38.372Z,50.30
2022-10-04T13:53:38.992Z,50.43
2022-10-04T13:56:28.200Z,49.84
2022-10-04T13:59:18.699Z,48.63
2022-10-04T14:02:10.199Z,49.05
2022-10-04T14:04:57.076Z,49.25
2022-10-04T14:07:30.547Z,49.16
2022-10-04T14:10:11.121Z,49.73
2022-10-04T14:12:47.383Z,49.40
2022-10-04T14:15:33.679Z,49.44
2022-10-04T14:18:34.570Z,48.83
2022-10-04T14:21:19.358Z,48.98
2022-10-04T14:23:56.219Z,48.82
2022-10-04T14:26:46.854Z,47.64
2022-10-04T14:29:35.278Z,48.08
2022-10-04T14:32:12.200Z,48.09
2022-10-04T14:34:56.910Z,47.78
2022-10-04T14:37:37.333Z,48.03
2022-10-04T14:40:10.209Z,47.51
2022-10-04T14:42:56.722Z,47.52
2022-10-04T14:45:37.746Z,47.51
2022-10-04T14:48:24.423Z,46.93
2022-10-04T14:51:09.877Z,46.96
2022-10-04T14:53:53.227Z,46.59
2022-10-04T14:56:42.162Z,47.16
2022-10-04T14:59:32.978Z,47.38
2022-10-04T15:02:03.121Z,47.63
2022-10-04T15:04:51.274Z,47.87
2022-10-04T15:07:30.564Z,47.41
2022-10-04T15:10:01.108Z,47.60
2022-10-04T15:12:58.473Z,47.68
2022-10-04T15:15:36.905Z,47.59
2022-10-04T15:18:11.982Z,47.71
2022-10-04T15:21:02.619Z,47.99
2022-10-04T15:23:35.069Z,47.54
2022-10-04T15:26:22.858Z,48.47
2022-10-04T15:28:50.249Z,48.24
2022-10-04T15:31:34.051Z,48.15
2022-10-04T15:34:29.567Z,47.40
2022-10-04T15:37:38.552Z,47.47
2022-10-04T15:40:29.656Z,47.98
2022-10-04T15:43:14.863Z,48.31
2022-10-04T15:45:52.227Z,48.34
2022-10-04T15:48:52.215Z,48.50
2022-10-04T15:51:48.754Z,48.40
2022-10-04T15:54:22.082Z,48.82
2022-10-04T15:56:54.164Z,49.10
2022-10-04T15:59:22.013Z,48.72
2022-10-04T16:02:23.634Z,48.92
2022-10-04T16:04:57.015Z,49.15
2022-10-04T16:07:27.935Z,49.36
2022-10-04T16:10:15.072Z,49.67
2022-10-04T16:13:34.084Z,49.71
2022-10-04T16:16:16.864Z,49.63
2022-10-04T16:19:09.973Z,49.84
2022-10-04T16:21:43.444Z,50.10
2022-10-04T16:24:19.446Z,50.47
2022-10-04T16:26:47.586Z,51.10
2022-10-04T16:30:14.518Z,51.53
2022-10-04T16:33:00.881Z,51.28
2022-10-04T16:35:34.705Z,51.26
2022-10-04T16:38:23.182Z,52.27
2022-10-04T16:40:50.345Z,51.82
2022-10-04T16:43:17.799Z,52.10
2022-10-04T16:46:03.412Z,52.08
2022-10-04T16:48:37.563Z,52.29
2022-10-04T16:51:04.786Z,52.45
2022-10-04T16:53:53.351Z,52.56
2022-10-04T16:56:23.231Z,52.80
2022-10-04T16:59:10.680Z,52.81
2022-10-04T17:02:00.180Z,52.78
2022-10-04T17:04:30.781Z,53.18
2022-10-04T17:07:00.016Z,53.31
2022-10-04T17:09:35.461Z,53.60
2022-10-04T17:12:22.102Z,53.79
2022-10-04T17:15:14.112Z,54.04
2022-10-04T17:18:06.318Z,54.31
2022-10-04T17:20:45.873Z,54.67
2022-10-04T17:23:47.168Z,55.89
2022-10-04T17:26:42.957Z,55.93
2022-10-04T17:30:01.719Z,55.99
2022-10-04T17:32:57.133Z,56.26
2022-10-04T17:35:46.986Z,56.28
2022-10-04T17:38:52.262Z,56.56
2022-10-04T17:41:43.986Z,56.40
2022-10-04T17:44:36.939Z,56.36
2022-10-04T17:47:19.118Z,56.48
2022-10-04T17:50:18.551Z,56.62
2022-10-04T17:53:12.040Z,56.68
2022-10-04T17:55:52.913Z,56.57
2022-10-04T17:58:25.185Z,56.79
2022-10-04T18:00:58.973Z,56.98
2022-10-04T18:03:37.236Z,57.22
2022-10-04T18:06:47.086Z,57.36
2022-10-04T18:09:40.616Z,57.35
2022-10-04T18:12:13.683Z,57.41
2022-10-04T18:15:09.499Z,57.45
2022-10-04T18:17:40.770Z,57.57
2022-10-04T18:20:26.321Z,57.64
2022-10-04T18:23:20.861Z,57.90
2022-10-04T18:25:48.981Z,57.88
2022-10-04T18:28:20.758Z,58.11
2022-10-04T18:30:48.481Z,57.91
2022-10-04T18:33:25.929Z,57.70
2022-10-04T18:36:22.285Z,57.56
2022-10-04T18:39:11.792Z,57.67
2022-10-04T18:41:52.335Z,58.00
2022-10-04T18:45:01.716Z,57.87
2022-10-04T18:47:39.095Z,58.28
2022-10-04T18:50:17.563Z,58.35
2022-10-04T18:53:21.857Z,58.47
2022-10-04T18:55:59.489Z,58.51
2022-10-04T18:59:08.178Z,58.26
2022-10-04T19:02:00.414Z,58.20
2022-10-04T19:04:40.127Z,58.15
2022-10-04T19:07:11.896Z,58.14
2022-10-04T19:10:01.014Z,58.17
2022-10-04T19:12:52.701Z,58.17
2022-10-04T19:15:35.911Z,58.38
2022-10-04T19:18:09.128Z,58.44
2022-10-04T19:20:44.073Z,58.61
2022-10-04T19:23:30.843Z,58.69
2022-10-04T19:26:31.045Z,58.58
2022-10-04T19:29:36.909Z,58.91
2022-10-04T19:32:08.928Z,59.06
2022-10-04T19:34:49.051Z,59.28
2022-10-04T19:37:25.905Z,59.24
2022-10-04T19:40:25.725Z,59.55
2022-10-04T19:43:08.393Z,59.43
2022-10-04T19:45:54.708Z,59.45
2022-10-04T19:48:25.556Z,59.57
2022-10-04T19:51:20.627Z,59.49
2022-10-04T19:53:50.567Z,59.33
2022-10-04T19:56:19.754Z,59.30
2022-10-04T19:59:05.103Z,59.08
2022-10-04T20:01:33.458Z,59.09
2022-10-04T20:04:20.370Z,59.23
2022-10-04T20:06:57.007Z,58.65
2022-10-04T20:09:36.665Z,58.81
2022-10-04T20:12:05.328Z,59.30
2022-10-04T20:14:32.773Z,59.14
2022-10-04T20:17:02.981Z,59.20
2022-10-04T20:19:30.348Z,59.57
2022-10-04T20:22:12.931Z,59.76
2022-10-04T20:24:40.192Z,59.77
2022-10-04T20:27:31.699Z,59.94
2022-10-04T20:30:04.735Z,60.01
2022-10-04T20:32:36.788Z,59.77
2022-10-04T20:35:14.031Z,59.45
2022-10-04T20:37:44.249Z,59.52
2022-10-04T20:40:40.585Z,59.32
2022-10-04T20:43:13.950Z,59.44
2022-10-04T20:45:46.159Z,59.17
2022-10-04T20:48:22.292Z,59.00
2022-10-04T20:50:49.887Z,59.36
2022-10-04T20:53:22.573Z,59.09
2022-10-04T20:55:50.031Z,59.35
2022-10-04T20:58:37.336Z,59.30
2022-10-04T21:01:25.423Z,59.45
2022-10-04T21:03:53.031Z,59.79
2022-10-04T21:06:20.343Z,59.70
2022-10-04T21:08:47.666Z,59.63
2022-10-04T21:11:20.396Z,59.36
2022-10-04T21:14:01.964Z,58.91
2022-10-04T21:16:40.584Z,59.33
2022-10-04T21:19:30.137Z,59.82
2022-10-04T21:22:08.025Z,60.20
2022-10-04T21:24:42.219Z,60.34
2022-10-04T21:27:11.492Z,60.16
2022-10-04T21:29:39.286Z,60.81
2022-10-04T21:32:06.633Z,60.93
2022-10-04T21:34:52.323Z,60.67
2022-10-04T21:37:21.238Z,60.65
2022-10-04T21:39:48.786Z,59.96
2022-10-04T21:42:16.152Z,59.46
2022-10-04T21:44:43.726Z,59.10
2022-10-04T21:47:11.375Z,59.11
2022-10-04T21:49:39.449Z,59.24
2022-10-04T21:52:06.841Z,58.97
2022-10-04T21:54:34.480Z,59.06
2022-10-04T21:57:01.859Z,58.85
2022-10-04T21:59:29.388Z,59.01
2022-10-04T22:01:57.033Z,58.74
2022-10-04T22:04:24.637Z,58.64
2022-10-04T22:06:51.953Z,58.98
2022-10-04T22:09:19.217Z,58.76
2022-10-04T22:11:46.886Z,58.98
2022-10-04T22:14:14.156Z,59.38
2022-10-04T22:16:41.556Z,59.17
2022-10-04T22:19:09.168Z,59.23
2022-10-04T22:21:36.550Z,59.30
2022-10-04T22:24:06.514Z,59.43
2022-10-04T22:26:34.049Z,59.27
2022-10-04T22:29:01.321Z,59.04
2022-10-04T22:31:29.611Z,59.30
2022-10-04T22:33:57.286Z,59.23
2022-10-04T22:36:27.234Z,59.43
2022-10-04T22:39:01.122Z,59.56
2022-10-04T22:41:31.222Z,59.56
2022-10-04T22:44:00.220Z,59.77
2022-10-04T22:46:38.824Z,59.47
2022-10-04T22:49:15.546Z,59.27
2022-10-04T22:51:44.673Z,59.53
2022-10-04T22:54:24.860Z,60.12
2022-10-04T22:56:52.980Z,60.49
2022-10-04T22:59:21.674Z,60.34
2022-10-04T23:01:49.184Z,60.26
2022-10-04T23:04:24.493Z,60.33
2022-10-04T23:06:52.941Z,60.13
2022-10-04T23:09:20.784Z,60.24
2022-10-04T23:11:48.313Z,60.02
2022-10-04T23:14:15.836Z,59.66
2022-10-04T23:16:44.659Z,59.60
2022-10-04T23:19:14.692Z,58.97
2022-10-04T23:21:46.831Z,59.54
2022-10-04T23:24:16.819Z,59.76
2022-10-04T23:26:49.536Z,59.84
2022-10-04T23:29:33.610Z,59.75
2022-10-04T23:32:09.892Z,59.57
2022-10-04T23:34:38.804Z,59.55
2022-10-04T23:37:32.759Z,59.71
2022-10-04T23:40:00.070Z,59.91
2022-10-04T23:42:30.186Z,59.89
2022-10-04T23:45:00.573Z,60.53
2022-10-04T23:47:35.843Z,60.36
2022-10-04T23:50:18.203Z,60.32
2022-10-04T23:52:45.629Z,60.14
2022-10-04T23:55:18.406Z,61.11
2022-10-04T23:57:46.245Z,61.14
